Fairmont, MN

6:40 PM CDT on April 25, 2015 (GMT -0500)
FudgeHome | | Change Station
CLOSE
Current Station
Personal Weather Station
Location: Fairmont, MN
Elevation: 1178 ft
Nearby Weather Stations

Elev 1178 ft 43.67 °N, 94.47 °W | Updated 8 minutes ago

Overcast
Overcast
53.2 °F
Feels Like 53.2 °F
N
1.7
Wind Variable Wind from ENE

Today
High -- | Low -- °F
--% Chance of Precip.
Yesterday
High -- | Low -- °F
Precip. -- in
6:19 AM 8:12 PM
Waxing Crescent, 50% visible
Pressure 29.85 in
Visibility 10.0 miles
Clouds Overcast 3600 ft
Dew Point 41 °F
Humidity 63%
Rainfall 0.00 in
Snow Depth Not available.
UV 0 out of 12
Pollen 5.20 out of 12
Air Quality Not available.
Flu Activity Local Activity
METAR KFRM 252335Z AUTO 08012KT 10SM OVC036 11/02 A2985 RMK AO1

More Conditions Fewer Conditions

Pressure 29.85 in
Visibility 10.0 miles
Clouds Overcast 3600 ft
Dew Point 41 °F
Humidity 63%
Rainfall 0.00 in
Snow Depth Not available.
UV 0 out of 12
Pollen 5.20 out of 12
Air Quality Not available.
Flu Activity Local Activity
METAR KFRM 252335Z AUTO 08012KT 10SM OVC036 11/02 A2985 RMK AO1

More Conditions Fewer Conditions

10-Day Weather Forecast

Almanac

Astronomy

Apr. 25, 2015 Rise Set
Actual Time
Civil Twilight
Nautical Twilight
Astronomical Twilight
Moon
Length of Visible Light
Length of Day
Tomorrow will be .
, % of the Moon is Illuminated

Today's Extremes

State Highs State Lows

Community

WunderPhotos

Upload Photos

1,816,850 photos uploaded!

WunderBlogs® & News

Nearby

Air Quality

  Air Quality AQ Index Pollutant
Not available.

Snow Depth

Station Depth Elevation

Earthquake Activity

City Distance Mag. Time & Date
Minimum magnitude displayed is 2.5.

Coastal Water Temperatures

Place Temperature

Stations

Nearby Weather Stations

Station Location Temp. Windchill Dew Point Humidity Wind Precip. Elev Updated Type